createdAt,value
2022-12-08T00:00:21.507Z,989.43
2022-12-08T00:01:21.443Z,989.46
2022-12-08T00:02:21.529Z,989.47
2022-12-08T00:03:21.458Z,989.42
2022-12-08T00:04:21.229Z,989.45
2022-12-08T00:05:21.182Z,989.44
2022-12-08T00:06:21.144Z,989.42
2022-12-08T00:07:21.088Z,989.44
2022-12-08T00:08:21.056Z,989.43
2022-12-08T00:09:20.925Z,989.44
2022-12-08T00:10:47.863Z,989.37
2022-12-08T00:11:20.819Z,989.38
2022-12-08T00:12:20.726Z,989.35
2022-12-08T00:13:20.631Z,989.34
2022-12-08T00:14:20.638Z,989.33
2022-12-08T00:15:24.607Z,989.33
2022-12-08T00:16:20.531Z,989.25
2022-12-08T00:17:20.375Z,989.25
2022-12-08T00:18:20.331Z,989.22
2022-12-08T00:19:20.271Z,989.23
2022-12-08T00:20:20.237Z,989.22
2022-12-08T00:21:20.186Z,989.24
2022-12-08T00:22:20.053Z,989.22
2022-12-08T00:23:20.038Z,989.21
2022-12-08T00:24:19.942Z,989.21
2022-12-08T00:25:19.858Z,989.23
2022-12-08T00:26:19.813Z,989.25
2022-12-08T00:27:19.749Z,989.22
2022-12-08T00:28:19.689Z,989.28
2022-12-08T00:29:19.648Z,989.25
2022-12-08T00:30:19.530Z,989.27
2022-12-08T00:31:19.537Z,989.29
2022-12-08T00:32:19.473Z,989.26
2022-12-08T00:33:19.361Z,989.25
2022-12-08T00:34:19.273Z,989.26
2022-12-08T00:35:20.037Z,989.26
2022-12-08T00:36:19.162Z,989.24
2022-12-08T00:37:20.029Z,989.25
2022-12-08T00:38:19.045Z,989.22
2022-12-08T00:39:19.016Z,989.19
2022-12-08T00:40:18.940Z,989.16
2022-12-08T00:41:18.870Z,989.18
2022-12-08T00:42:18.784Z,989.14
2022-12-08T00:43:18.720Z,989.12
2022-12-08T00:44:18.661Z,989.13
2022-12-08T00:45:18.615Z,989.15
2022-12-08T00:46:18.592Z,989.10
2022-12-08T00:47:23.432Z,989.08
2022-12-08T00:48:18.407Z,989.12
2022-12-08T00:49:18.333Z,989.09
2022-12-08T00:50:18.291Z,989.07
2022-12-08T00:51:18.565Z,989.03
2022-12-08T00:52:18.160Z,989.06
2022-12-08T00:53:18.076Z,989.02
2022-12-08T00:54:18.045Z,988.97
2022-12-08T00:55:17.943Z,988.98
2022-12-08T00:56:17.877Z,988.99
2022-12-08T00:57:18.150Z,988.94
2022-12-08T00:58:17.777Z,988.90
2022-12-08T00:59:17.705Z,988.96
2022-12-08T01:00:17.620Z,988.90
2022-12-08T01:01:17.555Z,988.93
2022-12-08T01:02:17.460Z,988.93
2022-12-08T01:03:17.563Z,988.93
2022-12-08T01:04:17.326Z,988.94
2022-12-08T01:05:17.289Z,988.97
2022-12-08T01:06:17.226Z,988.98
2022-12-08T01:07:17.167Z,989.01
2022-12-08T01:08:17.172Z,988.99
2022-12-08T01:09:17.040Z,989.02
2022-12-08T01:10:16.983Z,989.01
2022-12-08T01:11:16.933Z,988.98
2022-12-08T01:12:16.844Z,988.96
2022-12-08T01:13:16.802Z,988.95
2022-12-08T01:14:16.692Z,988.98
2022-12-08T01:15:16.701Z,989.00
2022-12-08T01:16:16.678Z,989.02
2022-12-08T01:17:16.516Z,989.00
2022-12-08T01:18:16.489Z,989.03
2022-12-08T01:19:16.362Z,988.99
2022-12-08T01:20:16.318Z,989.01
2022-12-08T01:21:16.252Z,989.04
2022-12-08T01:22:16.189Z,989.01
2022-12-08T01:23:16.099Z,989.02
2022-12-08T01:24:16.101Z,989.04
2022-12-08T01:25:16.022Z,989.02
2022-12-08T01:26:15.913Z,989.03
2022-12-08T01:27:15.892Z,989.07
2022-12-08T01:28:15.801Z,989.05
2022-12-08T01:29:15.770Z,989.09
2022-12-08T01:30:15.645Z,989.06
2022-12-08T01:31:15.664Z,989.11
2022-12-08T01:32:15.541Z,989.08
2022-12-08T01:33:15.475Z,989.09
2022-12-08T01:34:15.476Z,989.06
2022-12-08T01:35:15.347Z,989.08
2022-12-08T01:36:15.311Z,989.00
2022-12-08T01:37:15.221Z,989.05
2022-12-08T01:38:15.156Z,989.02
2022-12-08T01:39:15.117Z,989.06
2022-12-08T01:40:15.028Z,989.06
2022-12-08T01:41:14.990Z,989.04
2022-12-08T01:42:14.896Z,989.00
2022-12-08T01:43:14.851Z,989.07
2022-12-08T01:44:14.790Z,989.05
2022-12-08T01:47:33.186Z,988.97
2022-12-08T01:48:34.049Z,988.91
2022-12-08T01:49:33.985Z,988.94
2022-12-08T01:50:33.968Z,988.95
2022-12-08T01:51:33.881Z,988.98
2022-12-08T01:52:33.855Z,988.93
2022-12-08T01:53:33.766Z,988.97
2022-12-08T01:54:33.650Z,989.00
2022-12-08T01:55:33.592Z,988.98
2022-12-08T01:56:33.553Z,989.00
2022-12-08T01:57:33.500Z,988.97
2022-12-08T01:58:33.466Z,988.94
2022-12-08T01:59:33.336Z,988.94
2022-12-08T02:00:33.272Z,988.99
2022-12-08T02:01:33.288Z,988.93
2022-12-08T02:02:33.225Z,988.92
2022-12-08T02:03:33.099Z,988.99
2022-12-08T02:04:35.440Z,988.94
2022-12-08T02:05:32.999Z,988.93
2022-12-08T02:06:32.877Z,988.93
2022-12-08T02:07:32.859Z,988.91
2022-12-08T02:08:32.783Z,988.88
2022-12-08T02:09:32.710Z,988.86
2022-12-08T02:10:32.663Z,988.90
2022-12-08T02:11:53.566Z,988.87
2022-12-08T02:12:51.753Z,988.88
2022-12-08T02:13:32.438Z,988.85
2022-12-08T02:14:32.421Z,988.80
2022-12-08T02:15:32.386Z,988.78
2022-12-08T02:16:32.289Z,988.81
2022-12-08T02:17:32.190Z,988.77
2022-12-08T02:18:32.102Z,988.80
2022-12-08T02:19:32.235Z,988.75
2022-12-08T02:20:32.006Z,988.76
2022-12-08T02:21:31.905Z,988.74
2022-12-08T02:22:52.847Z,988.74
2022-12-08T02:23:31.828Z,988.73
2022-12-08T02:24:31.757Z,988.72
2022-12-08T02:25:31.700Z,988.72
2022-12-08T02:26:31.635Z,988.66
2022-12-08T02:27:31.543Z,988.71
2022-12-08T02:28:31.498Z,988.65
2022-12-08T02:29:31.412Z,988.69
2022-12-08T02:30:31.415Z,988.68
2022-12-08T02:31:31.377Z,988.66
2022-12-08T02:32:31.283Z,988.69
2022-12-08T02:33:31.183Z,988.65
2022-12-08T02:34:31.904Z,988.64
2022-12-08T02:35:31.038Z,988.67
2022-12-08T02:36:30.979Z,988.64
2022-12-08T02:37:30.870Z,988.62
2022-12-08T02:38:30.831Z,988.60
2022-12-08T02:39:30.737Z,988.61
2022-12-08T02:40:33.149Z,988.61
2022-12-08T02:41:30.668Z,988.63
2022-12-08T02:42:30.571Z,988.58
2022-12-08T02:43:30.481Z,988.59
2022-12-08T02:44:30.506Z,988.58
2022-12-08T02:45:30.378Z,988.61
2022-12-08T02:46:30.361Z,988.55
2022-12-08T02:47:30.249Z,988.53
2022-12-08T02:48:30.159Z,988.53
2022-12-08T02:49:30.148Z,988.53
2022-12-08T02:50:30.084Z,988.53
2022-12-08T02:51:29.993Z,988.50
2022-12-08T02:52:29.935Z,988.49
2022-12-08T02:53:29.884Z,988.49
2022-12-08T02:54:29.808Z,988.48
2022-12-08T02:55:29.735Z,988.44
2022-12-08T02:56:29.724Z,988.45
2022-12-08T02:57:29.626Z,988.49
2022-12-08T02:58:29.634Z,988.47
2022-12-08T02:59:29.444Z,988.50
2022-12-08T03:00:29.416Z,988.46
2022-12-08T03:01:29.382Z,988.46
2022-12-08T03:02:29.304Z,988.46
2022-12-08T03:03:29.232Z,988.45
2022-12-08T03:04:29.148Z,988.40
2022-12-08T03:05:29.129Z,988.44
2022-12-08T03:06:29.046Z,988.41
2022-12-08T03:07:29.030Z,988.42
2022-12-08T03:08:28.912Z,988.37
2022-12-08T03:09:28.822Z,988.35
2022-12-08T03:10:28.772Z,988.33
2022-12-08T03:11:28.712Z,988.33
2022-12-08T03:12:28.690Z,988.32
2022-12-08T03:13:28.593Z,988.30
2022-12-08T03:14:28.497Z,988.27
2022-12-08T03:15:28.587Z,988.24
2022-12-08T03:16:29.650Z,988.21
2022-12-08T03:17:28.331Z,988.19
2022-12-08T03:18:28.268Z,988.20
2022-12-08T03:19:28.153Z,988.18
2022-12-08T03:20:28.108Z,988.19
2022-12-08T03:21:28.084Z,988.18
2022-12-08T03:22:28.015Z,988.16
2022-12-08T03:23:27.971Z,988.10
2022-12-08T03:24:27.855Z,988.11
2022-12-08T03:25:27.818Z,988.10
2022-12-08T03:26:27.735Z,988.12
2022-12-08T03:27:27.658Z,988.09
2022-12-08T03:28:27.574Z,988.04
2022-12-08T03:29:27.498Z,988.06
2022-12-08T03:30:27.462Z,988.05
2022-12-08T03:31:27.451Z,988.06
2022-12-08T03:32:27.364Z,987.99
2022-12-08T03:33:27.872Z,988.01
2022-12-08T03:34:28.440Z,988.00
2022-12-08T03:35:27.140Z,987.97
2022-12-08T03:36:27.051Z,987.97
2022-12-08T03:37:26.979Z,987.98
2022-12-08T03:38:26.942Z,987.99
2022-12-08T03:39:26.904Z,987.99
2022-12-08T03:40:26.850Z,987.94
2022-12-08T03:41:26.757Z,987.91
2022-12-08T03:42:26.718Z,987.94
2022-12-08T03:43:26.616Z,987.95
2022-12-08T03:44:26.586Z,987.90
2022-12-08T03:45:26.486Z,987.91
2022-12-08T03:46:55.797Z,987.90
2022-12-08T03:47:56.702Z,987.92
2022-12-08T03:48:56.637Z,987.86
2022-12-08T03:49:56.575Z,987.90
2022-12-08T03:50:56.541Z,987.86
2022-12-08T03:52:17.436Z,987.86
2022-12-08T03:52:56.444Z,987.83
2022-12-08T03:53:56.287Z,987.84
2022-12-08T03:54:56.280Z,987.84
2022-12-08T03:55:56.214Z,987.83
2022-12-08T03:56:56.097Z,987.83
2022-12-08T03:57:56.114Z,987.84
2022-12-08T03:58:55.993Z,987.85
2022-12-08T03:59:55.984Z,987.81
2022-12-08T04:00:55.900Z,987.81
2022-12-08T04:01:55.853Z,987.76
2022-12-08T04:02:55.808Z,987.75
2022-12-08T04:03:56.032Z,987.74
2022-12-08T04:04:55.640Z,987.75
2022-12-08T04:05:55.542Z,987.70
2022-12-08T04:06:55.484Z,987.67
2022-12-08T04:07:55.471Z,987.66
2022-12-08T04:08:55.394Z,987.67
2022-12-08T04:09:56.499Z,987.66
2022-12-08T04:10:55.196Z,987.67
2022-12-08T04:11:55.158Z,987.63
2022-12-08T04:12:55.123Z,987.63
2022-12-08T04:13:55.031Z,987.62
2022-12-08T04:14:54.958Z,987.64
2022-12-08T04:15:54.930Z,987.68
2022-12-08T04:16:54.834Z,987.67
2022-12-08T04:17:54.797Z,987.67
2022-12-08T04:18:54.710Z,987.67
2022-12-08T04:19:54.679Z,987.63
2022-12-08T04:20:54.576Z,987.66
2022-12-08T04:21:54.560Z,987.67
2022-12-08T04:22:54.423Z,987.61
2022-12-08T04:24:00.638Z,987.58
2022-12-08T04:24:54.351Z,987.60
2022-12-08T04:25:54.263Z,987.58
2022-12-08T04:26:54.217Z,987.57
2022-12-08T04:30:12.561Z,987.54
2022-12-08T04:31:13.598Z,987.49
2022-12-08T04:32:13.459Z,987.49
2022-12-08T04:33:13.434Z,987.50
2022-12-08T04:34:13.353Z,987.44
2022-12-08T04:35:13.285Z,987.45
2022-12-08T04:36:13.202Z,987.42
2022-12-08T04:37:13.109Z,987.50
2022-12-08T04:38:13.107Z,987.49
2022-12-08T04:39:13.035Z,987.50
2022-12-08T04:40:12.973Z,987.53
2022-12-08T04:41:12.978Z,987.48
2022-12-08T04:42:12.812Z,987.47
2022-12-08T04:43:12.774Z,987.48
2022-12-08T04:44:12.710Z,987.50
2022-12-08T04:45:12.589Z,987.47
2022-12-08T04:46:12.626Z,987.51
2022-12-08T04:47:12.576Z,987.47
2022-12-08T04:48:12.451Z,987.48
2022-12-08T04:49:12.340Z,987.46
2022-12-08T04:50:12.283Z,987.42
2022-12-08T04:51:12.231Z,987.46
2022-12-08T04:52:12.138Z,987.45
2022-12-08T04:53:12.138Z,987.46
2022-12-08T04:54:12.099Z,987.43
2022-12-08T04:55:11.973Z,987.41
2022-12-08T04:56:11.932Z,987.43
2022-12-08T04:57:11.842Z,987.42
2022-12-08T04:58:11.772Z,987.42
2022-12-08T04:59:11.690Z,987.38
2022-12-08T05:00:11.648Z,987.31
2022-12-08T05:01:11.669Z,987.34
2022-12-08T05:02:11.706Z,987.35
2022-12-08T05:03:12.035Z,987.31
2022-12-08T05:04:11.360Z,987.28
2022-12-08T05:05:33.558Z,987.27
2022-12-08T05:06:11.281Z,987.29
2022-12-08T05:07:11.194Z,987.32
2022-12-08T05:08:11.172Z,987.35
2022-12-08T05:09:11.100Z,987.33
2022-12-08T05:10:10.968Z,987.33
2022-12-08T05:11:10.983Z,987.29
2022-12-08T05:12:10.891Z,987.28
2022-12-08T05:13:10.802Z,987.26
2022-12-08T05:14:10.781Z,987.21
2022-12-08T05:15:10.706Z,987.28
2022-12-08T05:16:10.720Z,987.30
2022-12-08T05:17:10.565Z,987.31
2022-12-08T05:18:10.480Z,987.28
2022-12-08T05:19:10.442Z,987.28
2022-12-08T05:20:10.360Z,987.30
2022-12-08T05:21:10.349Z,987.26
2022-12-08T05:22:10.281Z,987.29
2022-12-08T05:23:14.147Z,987.25
2022-12-08T05:24:10.087Z,987.26
2022-12-08T05:25:09.997Z,987.24
2022-12-08T05:26:09.981Z,987.24
2022-12-08T05:27:09.967Z,987.24
2022-12-08T05:28:39.702Z,987.22
2022-12-08T05:29:09.813Z,987.18
2022-12-08T05:30:09.726Z,987.18
2022-12-08T05:31:09.771Z,987.17
2022-12-08T05:32:09.673Z,987.19
2022-12-08T05:33:09.479Z,987.18
2022-12-08T05:34:09.473Z,987.17
2022-12-08T05:35:09.509Z,987.20
2022-12-08T05:36:09.311Z,987.16
2022-12-08T05:37:09.276Z,987.17
2022-12-08T05:38:09.213Z,987.20
2022-12-08T05:39:09.122Z,987.21
2022-12-08T05:40:09.053Z,987.20
2022-12-08T05:41:09.014Z,987.18
2022-12-08T05:42:08.880Z,987.24
2022-12-08T05:43:08.777Z,987.18
2022-12-08T05:44:08.774Z,987.15
2022-12-08T05:45:08.688Z,987.15
2022-12-08T05:46:08.749Z,987.17
2022-12-08T05:47:08.648Z,987.18
2022-12-08T05:48:08.533Z,987.14
2022-12-08T05:49:08.491Z,987.09
2022-12-08T05:50:08.432Z,987.16
2022-12-08T05:51:08.338Z,987.12
2022-12-08T05:52:08.298Z,987.11
2022-12-08T05:53:08.228Z,987.10
2022-12-08T05:54:08.118Z,987.09
2022-12-08T05:55:08.080Z,987.06
2022-12-08T05:56:08.115Z,987.10
2022-12-08T05:57:07.980Z,987.02
2022-12-08T05:58:08.266Z,987.05
2022-12-08T06:01:26.289Z,986.89
2022-12-08T06:02:27.407Z,986.91
2022-12-08T06:03:27.303Z,986.87
2022-12-08T06:04:27.118Z,986.91
2022-12-08T06:05:27.056Z,986.95
2022-12-08T06:06:27.049Z,986.93
2022-12-08T06:07:26.888Z,986.98
2022-12-08T06:08:26.886Z,986.97
2022-12-08T06:09:26.766Z,986.98
2022-12-08T06:10:26.716Z,986.96
2022-12-08T06:11:26.662Z,986.95
2022-12-08T06:12:26.590Z,986.92
2022-12-08T06:13:26.540Z,986.94
2022-12-08T06:14:26.417Z,986.92
2022-12-08T06:15:26.356Z,986.91
2022-12-08T06:16:26.553Z,986.93
2022-12-08T06:17:26.247Z,986.92
2022-12-08T06:20:44.631Z,986.99
2022-12-08T06:21:45.586Z,986.97
2022-12-08T06:22:45.516Z,987.00
2022-12-08T06:23:45.450Z,986.99
2022-12-08T06:24:45.413Z,987.00
2022-12-08T06:25:45.489Z,986.96
2022-12-08T06:26:45.288Z,986.98
2022-12-08T06:27:45.198Z,986.98
2022-12-08T06:28:45.201Z,986.96
2022-12-08T06:29:45.052Z,986.99
2022-12-08T06:30:44.994Z,986.94
2022-12-08T06:31:45.118Z,986.96
2022-12-08T06:32:44.879Z,986.95
2022-12-08T06:33:44.829Z,986.95
2022-12-08T06:34:44.775Z,986.93
2022-12-08T06:35:44.649Z,986.97
2022-12-08T06:36:44.611Z,986.96
2022-12-08T06:37:44.576Z,986.98
2022-12-08T06:38:44.525Z,986.92
2022-12-08T06:39:44.391Z,986.90
2022-12-08T06:40:44.335Z,986.93
2022-12-08T06:41:44.292Z,986.91
2022-12-08T06:42:44.161Z,986.88
2022-12-08T06:43:44.219Z,986.86
2022-12-08T06:44:44.069Z,986.89
2022-12-08T06:45:44.090Z,986.92
2022-12-08T06:46:44.105Z,986.94
2022-12-08T06:47:44.467Z,986.92
2022-12-08T06:48:43.782Z,986.87
2022-12-08T06:49:43.741Z,986.91
2022-12-08T06:50:43.629Z,986.89
2022-12-08T06:51:43.780Z,986.89
2022-12-08T06:52:54.307Z,986.87
2022-12-08T06:53:43.472Z,986.92
2022-12-08T06:54:43.398Z,986.86
2022-12-08T06:58:02.662Z,986.89
2022-12-08T06:59:03.670Z,986.94
2022-12-08T07:00:03.989Z,986.96
2022-12-08T07:01:03.567Z,986.95
2022-12-08T07:02:03.467Z,986.93
2022-12-08T07:03:03.384Z,986.88
2022-12-08T07:04:03.327Z,986.87
2022-12-08T07:05:03.981Z,986.88
2022-12-08T07:06:04.467Z,986.90
2022-12-08T07:07:03.201Z,986.85
2022-12-08T07:08:03.126Z,986.84
2022-12-08T07:09:02.979Z,986.85
2022-12-08T07:10:03.338Z,986.85
2022-12-08T07:11:02.800Z,986.81
2022-12-08T07:12:02.764Z,986.79
2022-12-08T07:13:02.696Z,986.78
2022-12-08T07:14:02.633Z,986.77
2022-12-08T07:15:02.587Z,986.78
2022-12-08T07:16:02.511Z,986.83
2022-12-08T07:17:02.999Z,986.81
2022-12-08T07:18:02.357Z,986.84
2022-12-08T07:19:02.335Z,986.77
2022-12-08T07:20:02.518Z,986.80
2022-12-08T07:21:02.203Z,986.80
2022-12-08T07:22:02.153Z,986.79
2022-12-08T07:23:02.049Z,986.81
2022-12-08T07:24:02.015Z,986.81
2022-12-08T07:25:01.902Z,986.82
2022-12-08T07:26:01.860Z,986.81
2022-12-08T07:27:01.813Z,986.79
2022-12-08T07:28:01.704Z,986.78
2022-12-08T07:29:01.674Z,986.79
2022-12-08T07:30:01.749Z,986.74
2022-12-08T07:31:01.616Z,986.85
2022-12-08T07:32:01.470Z,986.84
2022-12-08T07:33:01.408Z,986.78
2022-12-08T07:34:01.367Z,986.82
2022-12-08T07:35:01.251Z,986.82
2022-12-08T07:36:01.216Z,986.81
2022-12-08T07:37:01.121Z,986.84
2022-12-08T07:38:01.089Z,986.79
2022-12-08T07:39:01.027Z,986.75
2022-12-08T07:40:01.069Z,986.74
2022-12-08T07:41:00.888Z,986.78
2022-12-08T07:42:00.851Z,986.74
2022-12-08T07:43:00.796Z,986.75
2022-12-08T07:44:00.725Z,986.72
2022-12-08T07:45:00.716Z,986.73
2022-12-08T07:46:00.575Z,986.74
2022-12-08T07:47:00.555Z,986.74
2022-12-08T07:48:00.518Z,986.76
2022-12-08T07:49:00.403Z,986.79
2022-12-08T07:50:00.310Z,986.77
2022-12-08T07:51:00.270Z,986.76
2022-12-08T07:52:00.250Z,986.74
2022-12-08T07:53:00.149Z,986.72
2022-12-08T07:54:00.057Z,986.74
2022-12-08T07:54:59.995Z,986.74
2022-12-08T07:55:59.895Z,986.76
2022-12-08T07:56:59.883Z,986.75
2022-12-08T07:57:59.803Z,986.76
2022-12-08T07:58:59.729Z,986.75
2022-12-08T08:00:00.482Z,986.75
2022-12-08T08:00:59.928Z,986.70
2022-12-08T08:02:21.323Z,986.71
2022-12-08T08:02:59.607Z,986.73
2022-12-08T08:03:59.472Z,986.71
2022-12-08T08:04:59.464Z,986.75
2022-12-08T08:05:59.247Z,986.73
2022-12-08T08:06:59.215Z,986.74
2022-12-08T08:07:59.230Z,986.69
2022-12-08T08:11:21.194Z,986.69
2022-12-08T08:12:33.720Z,986.72
2022-12-08T08:13:18.341Z,986.70
2022-12-08T08:14:18.245Z,986.72
2022-12-08T08:15:18.192Z,986.67
2022-12-08T08:16:18.314Z,986.68
2022-12-08T08:17:18.177Z,986.68
2022-12-08T08:18:17.969Z,986.64
2022-12-08T08:19:17.933Z,986.68
2022-12-08T08:20:17.840Z,986.68
2022-12-08T08:22:18.002Z,986.69
2022-12-08T08:23:17.645Z,986.70
2022-12-08T08:24:17.591Z,986.72
2022-12-08T08:25:17.513Z,986.68
2022-12-08T08:26:17.521Z,986.69
2022-12-08T08:27:17.414Z,986.68
2022-12-08T08:28:38.311Z,986.69
2022-12-08T08:29:17.270Z,986.67
2022-12-08T08:30:20.797Z,986.69
2022-12-08T08:31:17.168Z,986.66
2022-12-08T08:32:17.038Z,986.69
2022-12-08T08:33:16.976Z,986.67
2022-12-08T08:34:16.941Z,986.69
2022-12-08T08:35:16.880Z,986.69
2022-12-08T08:36:16.830Z,986.71
2022-12-08T08:37:16.812Z,986.66
2022-12-08T08:38:16.704Z,986.70
2022-12-08T08:39:16.636Z,986.65
2022-12-08T08:40:16.598Z,986.69
2022-12-08T08:41:16.592Z,986.70
2022-12-08T08:42:16.422Z,986.76
2022-12-08T08:43:16.378Z,986.71
2022-12-08T08:44:16.337Z,986.69
2022-12-08T08:45:16.229Z,986.67
2022-12-08T08:46:37.250Z,986.76
2022-12-08T08:47:16.068Z,986.76
2022-12-08T08:48:16.030Z,986.71
2022-12-08T08:49:15.965Z,986.81
2022-12-08T08:50:15.929Z,986.75
2022-12-08T08:51:15.865Z,986.73
2022-12-08T08:52:15.787Z,986.73
2022-12-08T08:53:15.747Z,986.79
2022-12-08T08:54:15.652Z,986.81
2022-12-08T08:55:15.583Z,986.70
2022-12-08T08:56:15.513Z,986.73
2022-12-08T08:57:16.717Z,986.73
2022-12-08T08:58:15.424Z,986.77
2022-12-08T08:59:15.301Z,986.70
2022-12-08T09:00:15.249Z,986.73
2022-12-08T09:01:15.216Z,986.75
2022-12-08T09:02:15.270Z,986.70
2022-12-08T09:03:15.093Z,986.73
2022-12-08T09:06:33.428Z,986.72
2022-12-08T09:07:34.260Z,986.77
2022-12-08T09:08:34.246Z,986.76
2022-12-08T09:09:34.169Z,986.69
2022-12-08T09:10:34.094Z,986.75
2022-12-08T09:11:34.195Z,986.73
2022-12-08T09:12:34.030Z,986.72
2022-12-08T09:13:33.899Z,986.75
2022-12-08T09:14:33.864Z,986.76
2022-12-08T09:15:33.874Z,986.69
2022-12-08T09:16:38.932Z,986.77
2022-12-08T09:17:33.661Z,986.74
2022-12-08T09:18:33.596Z,986.70
2022-12-08T09:19:33.512Z,986.70
2022-12-08T09:20:33.597Z,986.80
2022-12-08T09:21:33.438Z,986.81
2022-12-08T09:22:33.325Z,986.77
2022-12-08T09:23:35.555Z,986.73
2022-12-08T09:24:33.219Z,986.78
2022-12-08T09:25:33.136Z,986.65
2022-12-08T09:26:33.043Z,986.71
2022-12-08T09:27:32.999Z,986.67
2022-12-08T09:28:32.949Z,986.69
2022-12-08T09:29:36.208Z,986.71
2022-12-08T09:30:32.849Z,986.77
2022-12-08T09:31:32.914Z,986.72
2022-12-08T09:32:32.705Z,986.74
2022-12-08T09:33:32.616Z,986.71
2022-12-08T09:34:32.568Z,986.69
2022-12-08T09:35:32.516Z,986.73
2022-12-08T09:36:32.467Z,986.69
2022-12-08T09:37:32.386Z,986.72
2022-12-08T09:38:32.309Z,986.70
2022-12-08T09:39:32.199Z,986.67
2022-12-08T09:40:32.137Z,986.68
2022-12-08T09:41:38.984Z,986.64
2022-12-08T09:42:32.027Z,986.65
2022-12-08T09:43:32.777Z,986.62
2022-12-08T09:44:32.146Z,986.64
2022-12-08T09:45:42.878Z,986.67
2022-12-08T09:46:32.181Z,986.63
2022-12-08T09:47:36.461Z,986.61
2022-12-08T09:48:31.663Z,986.63
2022-12-08T09:49:31.642Z,986.64
2022-12-08T09:50:31.502Z,986.57
2022-12-08T09:51:31.472Z,986.62
2022-12-08T09:52:31.397Z,986.57
2022-12-08T09:53:35.518Z,986.57
2022-12-08T09:54:31.582Z,986.59
2022-12-08T09:55:31.178Z,986.58
2022-12-08T09:56:31.151Z,986.60
2022-12-08T09:57:31.094Z,986.52
2022-12-08T09:58:31.004Z,986.54
2022-12-08T09:59:30.956Z,986.47
2022-12-08T10:00:30.870Z,986.46
2022-12-08T10:01:30.873Z,986.47
2022-12-08T10:02:30.757Z,986.42
2022-12-08T10:03:30.652Z,986.40
2022-12-08T10:04:30.700Z,986.42
2022-12-08T10:05:30.618Z,986.40
2022-12-08T10:06:30.509Z,986.42
2022-12-08T10:07:30.460Z,986.41
2022-12-08T10:08:30.444Z,986.41
2022-12-08T10:09:30.291Z,986.44
2022-12-08T10:10:30.208Z,986.41
2022-12-08T10:11:30.198Z,986.39
2022-12-08T10:12:30.102Z,986.38
2022-12-08T10:13:30.042Z,986.36
2022-12-08T10:14:29.979Z,986.38
2022-12-08T10:15:29.905Z,986.34
2022-12-08T10:16:30.347Z,986.36
2022-12-08T10:17:29.853Z,986.37
2022-12-08T10:18:29.714Z,986.31
2022-12-08T10:19:29.661Z,986.27
2022-12-08T10:20:29.596Z,986.33
2022-12-08T10:21:29.536Z,986.29
2022-12-08T10:22:29.470Z,986.33
2022-12-08T10:23:29.395Z,986.30
2022-12-08T10:24:29.333Z,986.27
2022-12-08T10:25:29.306Z,986.26
2022-12-08T10:26:29.274Z,986.23
2022-12-08T10:27:29.530Z,986.24
2022-12-08T10:28:29.098Z,986.23
2022-12-08T10:29:29.027Z,986.27
2022-12-08T10:30:28.999Z,986.22
2022-12-08T10:31:29.016Z,986.22
2022-12-08T10:32:28.862Z,986.21
2022-12-08T10:33:29.919Z,986.17
2022-12-08T10:34:28.694Z,986.19
2022-12-08T10:35:49.615Z,986.17
2022-12-08T10:36:28.699Z,986.21
2022-12-08T10:37:29.122Z,986.19
2022-12-08T10:38:29.384Z,986.20
2022-12-08T10:39:28.388Z,986.23
2022-12-08T10:40:28.310Z,986.17
2022-12-08T10:41:28.437Z,986.24
2022-12-08T10:42:28.164Z,986.20
2022-12-08T10:43:28.155Z,986.19
2022-12-08T10:44:28.087Z,986.16
2022-12-08T10:45:27.974Z,986.18
2022-12-08T10:46:27.959Z,986.16
2022-12-08T10:47:27.947Z,986.14
2022-12-08T10:48:27.806Z,986.13
2022-12-08T10:49:27.773Z,986.12
2022-12-08T10:50:27.678Z,986.12
2022-12-08T10:51:27.605Z,986.12
2022-12-08T10:52:27.524Z,986.10
2022-12-08T10:53:27.998Z,986.05
2022-12-08T10:54:27.553Z,986.09
2022-12-08T10:55:27.334Z,986.02
2022-12-08T10:56:27.244Z,986.05
2022-12-08T10:57:27.237Z,986.00
2022-12-08T10:58:27.163Z,986.03
2022-12-08T10:59:27.098Z,986.03
2022-12-08T11:00:27.201Z,986.01
2022-12-08T11:01:27.183Z,986.01
2022-12-08T11:02:27.391Z,985.98
2022-12-08T11:03:26.888Z,985.97
2022-12-08T11:04:26.759Z,985.98
2022-12-08T11:05:26.726Z,986.00
2022-12-08T11:06:26.647Z,986.01
2022-12-08T11:07:26.653Z,986.00
2022-12-08T11:08:26.666Z,985.97
2022-12-08T11:09:26.612Z,986.02
2022-12-08T11:10:26.434Z,985.99
2022-12-08T11:11:51.106Z,985.99
2022-12-08T11:12:26.257Z,985.95
2022-12-08T11:13:26.270Z,985.95
2022-12-08T11:14:26.127Z,985.96
2022-12-08T11:15:26.193Z,985.99
2022-12-08T11:16:26.197Z,985.98
2022-12-08T11:17:26.114Z,985.95
2022-12-08T11:18:25.882Z,985.98
2022-12-08T11:19:27.454Z,985.90
2022-12-08T11:20:26.527Z,985.91
2022-12-08T11:21:25.910Z,985.89
2022-12-08T11:22:26.545Z,985.90
2022-12-08T11:23:46.564Z,985.87
2022-12-08T11:24:25.469Z,985.86
2022-12-08T11:25:25.488Z,985.86
2022-12-08T11:26:25.382Z,985.83
2022-12-08T11:27:25.425Z,985.84
2022-12-08T11:28:25.248Z,985.85
2022-12-08T11:29:28.276Z,985.79
2022-12-08T11:30:25.796Z,985.83
2022-12-08T11:31:25.183Z,985.81
2022-12-08T11:32:24.965Z,985.80
2022-12-08T11:33:24.917Z,985.78
2022-12-08T11:34:24.831Z,985.81
2022-12-08T11:35:24.850Z,985.80
2022-12-08T11:36:24.714Z,985.80
2022-12-08T11:37:26.600Z,985.82
2022-12-08T11:38:24.648Z,985.81
2022-12-08T11:39:24.529Z,985.80
2022-12-08T11:40:24.435Z,985.77
2022-12-08T11:41:24.417Z,985.82
2022-12-08T11:42:24.375Z,985.80
2022-12-08T11:43:24.264Z,985.83
2022-12-08T11:44:24.188Z,985.80
2022-12-08T11:45:24.097Z,985.84
2022-12-08T11:46:24.134Z,985.82
2022-12-08T11:47:24.091Z,985.80
2022-12-08T11:48:23.960Z,985.88
2022-12-08T11:49:23.920Z,985.83
2022-12-08T11:50:23.811Z,985.84
2022-12-08T11:51:23.775Z,985.82
2022-12-08T11:52:23.770Z,985.81
2022-12-08T11:53:23.698Z,985.79
2022-12-08T11:54:23.551Z,985.84
2022-12-08T11:55:23.542Z,985.82
2022-12-08T11:56:23.490Z,985.81
2022-12-08T11:57:23.402Z,985.84
2022-12-08T11:58:23.340Z,985.85
2022-12-08T11:59:23.268Z,985.79
2022-12-08T12:00:23.234Z,985.83
2022-12-08T12:01:23.077Z,985.84
2022-12-08T12:02:23.130Z,985.83
2022-12-08T12:03:23.046Z,985.88
2022-12-08T12:04:22.879Z,985.87
2022-12-08T12:05:47.506Z,985.82
2022-12-08T12:06:53.614Z,985.87
2022-12-08T12:07:26.140Z,985.84
2022-12-08T12:08:22.684Z,985.81
2022-12-08T12:09:22.589Z,985.85
2022-12-08T12:10:22.659Z,985.84
2022-12-08T12:11:22.501Z,985.84
2022-12-08T12:12:22.404Z,985.82
2022-12-08T12:13:22.368Z,985.81
2022-12-08T12:14:22.269Z,985.81
2022-12-08T12:15:22.188Z,985.80
2022-12-08T12:16:22.226Z,985.81
2022-12-08T12:17:22.089Z,985.80
2022-12-08T12:18:22.015Z,985.80
2022-12-08T12:19:21.949Z,985.80
2022-12-08T12:20:22.012Z,985.81
2022-12-08T12:21:21.823Z,985.84
2022-12-08T12:22:21.728Z,985.81
2022-12-08T12:23:21.704Z,985.79
2022-12-08T12:24:26.118Z,985.80
2022-12-08T12:25:21.543Z,985.78
2022-12-08T12:26:21.505Z,985.77
2022-12-08T12:27:21.463Z,985.75
2022-12-08T12:28:21.399Z,985.71
2022-12-08T12:29:21.305Z,985.70
2022-12-08T12:30:21.245Z,985.69
2022-12-08T12:31:21.186Z,985.68
2022-12-08T12:32:21.159Z,985.67
2022-12-08T12:33:21.180Z,985.67
2022-12-08T12:34:20.988Z,985.68
2022-12-08T12:35:26.825Z,985.68
2022-12-08T12:36:20.842Z,985.72
2022-12-08T12:37:20.822Z,985.74
2022-12-08T12:38:20.762Z,985.71
2022-12-08T12:39:20.670Z,985.71
2022-12-08T12:40:20.581Z,985.78
2022-12-08T12:41:41.551Z,985.73
2022-12-08T12:42:20.518Z,985.80
2022-12-08T12:43:20.415Z,985.80
2022-12-08T12:44:20.375Z,985.82
2022-12-08T12:45:20.313Z,985.76